Time;durP1;ratioP1;P1;durP2;ratioP2;P2;SDS_P1;SDS_P2;PMS_P1;PMS_P2;Temp;Humidity;BMP_temperature;BMP_pressure;BME280_temperature;BME280_humidity;BME280_pressure;Samples;Min_cycle;Max_cycle;Signal;HPM_P1;HPM_P2
2021/04/15 00:02:01;;;;;;;0.22;0.20;;;;;;;22.49;29.36;94719.78;6158870;23;20063;-64
2021/04/15 00:04:27;;;;;;;0.20;0.20;;;;;;;22.49;29.50;94722.44;6133898;23;20036;-64
2021/04/15 00:06:52;;;;;;;0.40;0.20;;;;;;;22.47;29.72;94718.47;6183870;23;20013;-64
2021/04/15 00:09:19;;;;;;;0.30;0.30;;;;;;;22.48;29.36;94712.88;6158789;23;20009;-64
2021/04/15 00:11:45;;;;;;;0.30;0.30;;;;;;;22.47;29.80;94713.97;6133749;23;20016;-63
2021/04/15 00:14:12;;;;;;;0.38;0.30;;;;;;;22.47;29.30;94711.31;6132886;23;20004;-64
2021/04/15 00:16:42;;;;;;;0.30;0.30;;;;;;;22.49;29.70;94713.69;6133597;23;20004;-64
2021/04/15 00:19:08;;;;;;;;;;;;;;;22.52;29.41;94716.59;6158885;23;20012;-64
2021/04/15 00:21:33;;;;;;;0.20;0.20;;;;;;;22.51;29.79;94711.59;6207376;23;19908;-63
2021/04/15 00:23:59;;;;;;;0.17;0.17;;;;;;;22.49;29.41;94709.19;6158638;23;20013;-64
2021/04/15 00:26:25;;;;;;;0.30;0.30;;;;;;;22.48;29.71;94707.59;6108945;23;20001;-64
2021/04/15 00:28:51;;;;;;;0.20;0.20;;;;;;;22.49;29.66;94705.75;6132999;23;20001;-64
2021/04/15 00:31:17;;;;;;;0.20;0.20;;;;;;;22.48;29.54;94702.28;6133983;23;19997;-64
2021/04/15 00:33:43;;;;;;;0.38;0.30;;;;;;;22.48;29.67;94701.50;6133411;23;20004;-64
2021/04/15 00:36:08;;;;;;;0.40;0.20;;;;;;;22.47;29.80;94703.38;6136799;23;20013;-64
2021/04/15 00:38:34;;;;;;;0.25;0.20;;;;;;;22.45;29.72;94692.22;6127151;23;20059;-64
2021/04/15 00:41:00;;;;;;;0.13;0.13;;;;;;;22.48;29.58;94693.56;6128620;23;20005;-64
2021/04/15 00:43:28;;;;;;;0.28;0.28;;;;;;;22.46;29.71;94691.16;6128904;23;19998;-64
2021/04/15 00:45:54;;;;;;;0.30;0.28;;;;;;;22.48;29.46;94694.34;6106562;23;20002;-64
2021/04/15 00:48:24;;;;;;;0.25;0.25;;;;;;;22.48;29.73;94691.69;6130470;23;20166;-64
2021/04/15 00:51:00;;;;;;;0.17;0.17;;;;;;;22.47;29.38;94690.13;6129555;23;20099;-64
2021/04/15 00:53:50;;;;;;;0.20;0.20;;;;;;;22.48;29.52;94683.75;6106205;23;20005;-64
2021/04/15 00:56:16;;;;;;;0.20;0.20;;;;;;;22.45;29.40;94684.28;6133609;23;20010;-64
2021/04/15 00:58:44;;;;;;;0.20;0.20;;;;;;;22.48;29.48;94688.25;6156191;23;20005;-64
2021/04/15 01:01:10;;;;;;;0.20;0.20;;;;;;;22.46;29.58;94680.56;6106617;23;20217;-64
2021/04/15 01:03:37;;;;;;;0.30;0.30;;;;;;;22.46;29.66;94675.25;6105711;23;20023;-64
2021/04/15 01:06:07;;;;;;;0.30;0.28;;;;;;;22.45;29.40;94671.81;6129954;23;20009;-64
2021/04/15 01:08:33;;;;;;;0.20;0.20;;;;;;;22.43;29.44;94670.50;6130557;23;20002;-64
2021/04/15 01:11:08;;;;;;;0.20;0.20;;;;;;;22.49;29.44;94671.31;6130012;23;20008;-64
2021/04/15 01:13:56;;;;;;;0.52;0.38;;;;;;;22.49;29.61;94674.75;6129167;23;20010;-64
2021/04/15 01:16:40;;;;;;;0.30;0.30;;;;;;;22.45;29.65;94677.13;6154176;23;20012;-64
2021/04/15 01:19:25;;;;;;;0.20;0.20;;;;;;;22.47;29.63;94679.50;6129835;23;20005;-64
2021/04/15 01:22:12;;;;;;;0.20;0.20;;;;;;;22.47;29.55;94678.72;6156278;23;20051;-64
2021/04/15 01:24:44;;;;;;;0.50;0.30;;;;;;;22.46;29.63;94680.56;6131938;23;20029;-64
2021/04/15 01:27:38;;;;;;;0.22;0.22;;;;;;;22.47;29.59;94676.88;6130005;23;20009;-64
2021/04/15 01:30:25;;;;;;;0.20;0.20;;;;;;;22.47;29.71;94678.72;6155591;23;20079;-64
2021/04/15 01:32:58;;;;;;;0.17;0.17;;;;;;;22.42;29.64;94674.22;6154101;23;20092;-64
2021/04/15 01:35:28;;;;;;;0.55;0.20;;;;;;;22.42;29.65;94674.22;6130832;23;20009;-64
2021/04/15 01:38:07;;;;;;;0.20;0.20;;;;;;;22.44;29.74;94675.53;6130355;23;20006;-64
2021/04/15 01:40:53;;;;;;;0.30;0.30;;;;;;;22.47;29.74;94681.38;6131599;23;20290;-64
2021/04/15 01:43:43;;;;;;;0.30;0.30;;;;;;;22.45;29.37;94676.34;6154229;23;20001;-64
2021/04/15 01:46:09;;;;;;;0.30;0.30;;;;;;;22.39;29.50;94675.53;6109798;23;20070;-64
2021/04/15 01:48:44;;;;;;;0.20;0.20;;;;;;;22.47;29.72;94684.81;6129757;23;20033;-64
2021/04/15 01:51:32;;;;;;;0.20;0.20;;;;;;;22.47;29.74;94674.22;6041433;23;20134;-64
2021/04/15 01:54:20;;;;;;;0.50;0.20;;;;;;;22.45;29.61;94671.81;6041812;23;20017;-64
2021/04/15 01:56:53;;;;;;;0.50;0.30;;;;;;;22.43;29.74;94670.50;6041031;23;20090;-64
2021/04/15 01:59:26;;;;;;;0.30;0.30;;;;;;;22.44;29.63;94664.13;6041194;23;20006;-64
2021/04/15 02:01:54;;;;;;;0.20;0.20;;;;;;;22.44;29.72;94666.78;6065321;23;20006;-64
2021/04/15 02:04:22;;;;;;;0.30;0.20;;;;;;;22.39;29.59;94657.00;6065350;23;20019;-64
2021/04/15 02:06:51;;;;;;;0.30;0.30;;;;;;;22.40;29.66;94655.13;6065775;23;20026;-64
2021/04/15 02:09:17;;;;;;;0.28;0.28;;;;;;;22.40;29.64;94661.22;6040983;23;20018;-64
2021/04/15 02:11:52;;;;;;;0.38;0.32;;;;;;;22.45;29.71;94676.34;6041469;23;20015;-64
2021/04/15 02:14:23;;;;;;;0.20;0.20;;;;;;;22.46;29.84;94667.31;6041134;23;20014;-63
2021/04/15 02:16:54;;;;;;;0.20;0.20;;;;;;;22.45;29.66;94660.44;6040133;23;20003;-63
2021/04/15 02:19:44;;;;;;;0.20;0.20;;;;;;;22.47;29.69;94668.91;6041265;23;20082;-64
2021/04/15 02:22:11;;;;;;;0.30;0.30;;;;;;;22.46;29.75;94662.00;6101300;23;20097;-64
2021/04/15 02:24:42;;;;;;;0.22;0.22;;;;;;;22.45;29.45;94661.22;6129718;23;20013;-64
2021/04/15 02:27:40;;;;;;;0.20;0.20;;;;;;;22.47;29.70;94658.31;6129643;23;20028;-64
2021/04/15 02:30:20;;;;;;;0.30;0.30;;;;;;;22.45;29.61;94661.22;6041199;23;20086;-64
2021/04/15 02:32:58;;;;;;;0.20;0.20;;;;;;;22.46;29.67;94662.00;6018938;23;20006;-64
2021/04/15 02:35:27;;;;;;;0.20;0.20;;;;;;;22.44;29.73;94664.91;6017537;23;20006;-64
2021/04/15 02:37:55;;;;;;;0.20;0.20;;;;;;;22.45;29.67;94666.53;5994086;23;20089;-64
2021/04/15 02:40:27;;;;;;;0.20;0.20;;;;;;;22.44;29.60;94664.91;6041174;23;20011;-64
2021/04/15 02:42:55;;;;;;;0.35;0.28;;;;;;;22.44;29.47;94664.13;5994208;23;20007;-64
2021/04/15 02:45:33;;;;;;;0.20;0.20;;;;;;;22.42;29.69;94659.09;5993930;23;20021;-64
2021/04/15 02:48:24;;;;;;;0.30;0.30;;;;;;;22.46;29.46;94659.34;6020992;23;20035;-64
2021/04/15 02:50:57;;;;;;;0.20;0.20;;;;;;;22.44;29.58;94656.19;6064393;23;20010;-64
2021/04/15 02:53:31;;;;;;;0.22;0.22;;;;;;;22.46;29.45;94659.34;5993888;23;20034;-64
2021/04/15 02:56:04;;;;;;;0.20;0.20;;;;;;;22.47;29.71;94658.31;5994051;23;20086;-64
2021/04/15 02:58:42;;;;;;;0.25;0.25;;;;;;;22.43;29.66;94652.75;6041096;23;20018;-64
2021/04/15 03:01:13;;;;;;;0.28;0.28;;;;;;;22.43;29.38;94651.97;6018369;23;20011;-64
2021/04/15 03:03:42;;;;;;;0.40;0.30;;;;;;;22.40;29.71;94647.19;6018471;23;20007;-64
2021/04/15 03:06:20;;;;;;;0.20;0.20;;;;;;;22.45;29.41;94655.13;6005608;23;20003;-64
2021/04/15 03:08:47;;;;;;;0.20;0.20;;;;;;;22.43;29.73;94651.97;6153439;23;20073;-64
2021/04/15 03:11:26;;;;;;;0.30;0.30;;;;;;;22.44;29.47;94650.88;6153011;23;20005;-64
2021/04/15 03:13:54;;;;;;;0.25;0.25;;;;;;;22.44;29.77;94648.22;6153496;23;20009;-64
2021/04/15 03:16:22;;;;;;;0.30;0.30;;;;;;;22.43;29.62;94651.97;6080895;23;19998;-64
2021/04/15 03:19:06;;;;;;;0.25;0.25;;;;;;;22.47;29.70;94647.72;6104856;23;20001;-64
2021/04/15 03:22:00;;;;;;;0.20;0.20;;;;;;;22.47;29.58;94647.72;6081175;23;20096;-64
2021/04/15 03:24:32;;;;;;;0.20;0.20;;;;;;;22.44;29.48;94650.88;6154796;23;20001;-64
2021/04/15 03:27:02;;;;;;;0.30;0.20;;;;;;;22.41;29.66;94643.47;6128127;23;20002;-64
2021/04/15 03:29:32;;;;;;;0.30;0.30;;;;;;;22.44;29.55;94650.88;6081396;23;20063;-64
2021/04/15 03:32:05;;;;;;;0.30;0.30;;;;;;;22.42;29.54;94651.16;6153871;23;20012;-64
2021/04/15 03:34:48;;;;;;;0.40;0.20;;;;;;;22.44;29.72;94649.03;6128289;23;20013;-64
2021/04/15 03:37:22;;;;;;;0.20;0.20;;;;;;;22.44;29.46;94653.53;6107745;23;20077;-65
2021/04/15 03:39:47;;;;;;;0.20;0.20;;;;;;;22.40;29.56;94644.53;6104043;23;20084;-64
2021/04/15 03:42:25;;;;;;;0.28;0.20;;;;;;;22.46;29.50;94648.75;6104144;23;20028;-64
2021/04/15 03:44:53;;;;;;;0.20;0.20;;;;;;;22.43;29.40;94651.97;6104038;23;20101;-64
2021/04/15 03:47:25;;;;;;;0.20;0.20;;;;;;;22.45;29.45;94650.63;6104478;23;20001;-64
2021/04/15 03:49:57;;;;;;;0.20;0.20;;;;;;;22.42;29.38;94645.06;6103750;23;20007;-64
2021/04/15 03:52:56;;;;;;;0.20;0.20;;;;;;;22.46;29.42;94646.13;6105307;23;20001;-64
2021/04/15 03:55:24;;;;;;;0.35;0.30;;;;;;;22.41;29.44;94648.78;6097645;23;19998;-64
2021/04/15 03:57:53;;;;;;;0.20;0.20;;;;;;;22.41;29.50;94644.28;6128262;23;20009;-64
2021/04/15 04:00:22;;;;;;;0.80;0.22;;;;;;;22.42;29.47;94648.50;6104725;23;20001;-64
2021/04/15 04:02:53;;;;;;;0.20;0.20;;;;;;;22.42;29.80;94645.84;6104176;23;20005;-64
2021/04/15 04:05:29;;;;;;;0.20;0.20;;;;;;;22.44;29.40;94653.53;6104456;23;20010;-64
2021/04/15 04:07:59;;;;;;;0.22;0.20;;;;;;;22.44;29.62;94642.94;6080040;23;20005;-64
2021/04/15 04:10:35;;;;;;;0.30;0.30;;;;;;;22.44;29.64;94650.88;6104367;23;20097;-64
2021/04/15 04:13:23;;;;;;;0.20;0.20;;;;;;;22.45;29.57;94650.63;6104498;23;20006;-64
2021/04/15 04:16:04;;;;;;;0.20;0.20;;;;;;;22.44;29.80;94650.88;6128678;23;20021;-64
2021/04/15 04:18:30;;;;;;;;;;;;;;;22.44;29.33;94651.66;6156712;23;20017;-64
2021/04/15 04:21:11;;;;;;;0.20;0.20;;;;;;;22.47;29.73;94654.88;6106012;23;19908;-64
2021/04/15 04:23:46;;;;;;;0.30;0.30;;;;;;;22.46;29.32;94656.72;6108124;23;20002;-64
2021/04/15 04:26:19;;;;;;;0.20;0.20;;;;;;;22.44;29.47;94658.84;6130091;23;20017;-64
2021/04/15 04:28:53;;;;;;;0.20;0.20;;;;;;;22.41;29.31;94646.91;6106936;23;20017;-64
2021/04/15 04:31:27;;;;;;;0.20;0.20;;;;;;;22.45;29.63;94660.44;6131386;23;20084;-63
2021/04/15 04:33:53;;;;;;;0.20;0.20;;;;;;;22.42;29.47;94658.31;6105631;23;20009;-64
2021/04/15 04:36:22;;;;;;;0.20;0.20;;;;;;;22.41;29.51;94667.34;6128854;23;20010;-64
2021/04/15 04:38:48;;;;;;;0.20;0.20;;;;;;;22.39;29.44;94667.59;6130062;23;20098;-63
2021/04/15 04:41:39;;;;;;;0.32;0.28;;;;;;;22.44;29.48;94672.09;6106489;23;20006;-64
2021/04/15 04:44:16;;;;;;;0.20;0.20;;;;;;;22.43;29.83;94662.56;6129527;23;20075;-63
2021/04/15 04:46:50;;;;;;;0.22;0.22;;;;;;;22.43;29.63;94667.84;6106334;23;20051;-64
2021/04/15 04:49:39;;;;;;;0.20;0.20;;;;;;;22.44;29.41;94672.88;6069948;23;20061;-64
2021/04/15 04:52:16;;;;;;;0.20;0.20;;;;;;;22.41;29.57;94678.72;6070230;23;20014;-64
2021/04/15 04:54:42;;;;;;;0.30;0.30;;;;;;;22.42;29.44;94679.50;6046355;23;20006;-64
2021/04/15 04:57:14;;;;;;;0.20;0.20;;;;;;;22.41;29.76;94677.94;6021324;23;20014;-64
2021/04/15 04:59:45;;;;;;;0.20;0.20;;;;;;;22.42;29.65;94682.94;6094989;23;20014;-64
2021/04/15 05:02:14;;;;;;;0.20;0.20;;;;;;;22.42;29.51;94682.16;6046593;23;20013;-64
2021/04/15 05:04:42;;;;;;;0.20;0.20;;;;;;;22.41;29.53;94680.56;6045437;23;20101;-64
2021/04/15 05:07:14;;;;;;;0.20;0.20;;;;;;;22.40;29.66;94674.47;6046573;23;20011;-64
2021/04/15 05:09:40;;;;;;;0.22;0.22;;;;;;;22.40;29.68;94679.75;6023988;23;20085;-64
2021/04/15 05:12:27;;;;;;;0.20;0.20;;;;;;;22.41;29.55;94680.56;6023361;23;20037;-64
2021/04/15 05:14:54;;;;;;;0.20;0.20;;;;;;;22.39;29.73;94678.19;6050663;23;20006;-65
2021/04/15 05:17:27;;;;;;;0.20;0.20;;;;;;;22.43;29.73;94681.91;6023915;23;20378;-64
2021/04/15 05:19:53;;;;;;;0.20;0.20;;;;;;;22.39;29.50;94678.19;6091381;23;20081;-64
2021/04/15 05:22:37;;;;;;;0.20;0.20;;;;;;;22.44;29.70;94683.47;6105655;23;20036;-64
2021/04/15 05:25:09;;;;;;;0.20;0.20;;;;;;;22.41;29.38;94688.53;6082769;23;20009;-64
2021/04/15 05:27:35;;;;;;;0.20;0.20;;;;;;;22.41;29.71;94686.66;6106152;23;20061;-64
2021/04/15 05:30:07;;;;;;;0.20;0.20;;;;;;;22.42;29.71;94690.09;6105074;23;20013;-64
2021/04/15 05:32:33;;;;;;;0.20;0.20;;;;;;;22.40;29.58;94692.22;6104813;23;20025;-64
2021/04/15 05:34:58;;;;;;;0.20;0.20;;;;;;;22.42;29.46;94695.41;6110396;23;20024;-64
2021/04/15 05:37:25;;;;;;;0.20;0.20;;;;;;;22.40;29.73;94684.28;6133205;23;20001;-65
2021/04/15 05:39:52;;;;;;;0.20;0.20;;;;;;;22.41;29.46;94697.25;6134227;23;20009;-64
2021/04/15 05:42:17;;;;;;;0.25;0.20;;;;;;;22.42;29.53;94695.41;6134624;23;20001;-65
2021/04/15 05:44:59;;;;;;;0.30;0.30;;;;;;;22.42;29.47;94685.59;6159051;23;20084;-64
2021/04/15 05:47:30;;;;;;;0.30;0.30;;;;;;;22.42;29.40;94692.75;6110144;23;20258;-64
2021/04/15 05:50:06;;;;;;;0.28;0.28;;;;;;;22.40;29.42;94694.88;6134931;23;20008;-64
2021/04/15 05:52:38;;;;;;;0.20;0.20;;;;;;;22.41;29.47;94686.66;6111163;23;20075;-64
2021/04/15 05:55:11;;;;;;;0.20;0.20;;;;;;;22.40;29.37;94692.22;6135246;23;20001;-64
2021/04/15 05:57:47;;;;;;;0.22;0.20;;;;;;;22.43;29.67;94704.97;6135538;23;20005;-64
2021/04/15 06:00:19;;;;;;;0.20;0.20;;;;;;;22.43;29.56;94691.72;6134988;23;20024;-64
2021/04/15 06:03:05;;;;;;;0.28;0.28;;;;;;;22.43;29.30;94699.66;6133249;23;20009;-64
2021/04/15 06:05:35;;;;;;;0.20;0.20;;;;;;;22.41;29.69;94697.25;6110999;23;20001;-64
2021/04/15 06:08:07;;;;;;;0.30;0.30;;;;;;;22.42;29.39;94698.06;6110066;23;20008;-64
2021/04/15 06:10:35;;;;;;;0.20;0.20;;;;;;;22.40;29.69;94693.00;6158338;23;20043;-64
2021/04/15 06:13:23;;;;;;;0.20;0.20;;;;;;;22.43;29.62;94700.44;6109009;23;20019;-64
2021/04/15 06:15:54;;;;;;;0.30;0.30;;;;;;;22.41;29.53;94697.25;6157637;23;20009;-64
2021/04/15 06:18:38;;;;;;;0.30;0.30;;;;;;;22.42;29.68;94698.06;6184809;23;20005;-64
2021/04/15 06:21:37;;;;;;;0.30;0.30;;;;;;;22.42;29.36;94692.75;6133100;23;20012;-64
2021/04/15 06:24:06;;;;;;;0.20;0.20;;;;;;;22.39;29.45;94698.56;6169094;23;20016;-64
2021/04/15 06:26:43;;;;;;;0.20;0.20;;;;;;;22.40;29.41;94697.53;6158519;23;20001;-64
2021/04/15 06:29:25;;;;;;;0.20;0.20;;;;;;;22.40;29.51;94705.47;6111131;23;20013;-64
2021/04/15 06:31:56;;;;;;;0.15;0.15;;;;;;;22.37;29.44;94701.50;6111875;23;20008;-64
2021/04/15 06:34:23;;;;;;;0.20;0.20;;;;;;;22.37;29.50;94706.00;6158594;23;20080;-64
2021/04/15 06:37:12;;;;;;;0.20;0.20;;;;;;;22.42;29.60;94706.78;6105597;23;20006;-64
2021/04/15 06:40:09;;;;;;;0.20;0.20;;;;;;;22.41;29.50;94704.44;6152794;23;20036;-64
2021/04/15 06:42:59;;;;;;;0.30;0.30;;;;;;;22.41;29.46;94707.06;6068577;23;20010;-64
2021/04/15 06:45:43;;;;;;;0.25;0.25;;;;;;;22.41;29.33;94717.69;6068584;23;20014;-64
2021/04/15 06:48:35;;;;;;;0.30;0.30;;;;;;;22.40;29.48;94705.47;6068529;23;20017;-64
2021/04/15 06:51:22;;;;;;;0.20;0.20;;;;;;;22.40;29.50;94710.78;6062995;23;20010;-65
2021/04/15 06:54:28;;;;;;;0.30;0.30;;;;;;;22.39;29.45;94709.16;6067779;23;20008;-64
2021/04/15 06:56:53;;;;;;;0.20;0.20;;;;;;;22.34;29.65;94712.63;6045472;23;20002;-64
2021/04/15 06:59:34;;;;;;;0.20;0.20;;;;;;;22.38;29.84;94715.53;6092994;23;20014;-64
2021/04/15 07:02:10;;;;;;;0.20;0.20;;;;;;;22.37;29.47;94713.94;6069355;23;20006;-65
2021/04/15 07:04:47;;;;;;;0.20;0.20;;;;;;;22.36;29.67;94715.00;6044538;23;20011;-64
2021/04/15 07:07:23;;;;;;;0.30;0.30;;;;;;;22.37;29.26;94706.00;6045500;23;20014;-64
2021/04/15 07:10:13;;;;;;;0.20;0.20;;;;;;;22.37;29.66;94709.47;6043948;23;20006;-64
2021/04/15 07:13:10;;;;;;;0.30;0.30;;;;;;;22.36;29.52;94699.13;6068810;23;20058;-64
2021/04/15 07:15:50;;;;;;;0.20;0.20;;;;;;;22.36;29.52;94704.41;6068420;23;20047;-64
2021/04/15 07:18:40;;;;;;;0.20;0.20;;;;;;;22.36;29.29;94709.72;6068767;23;20006;-64
2021/04/15 07:21:29;;;;;;;0.20;0.20;;;;;;;22.36;29.24;94704.41;6154175;23;20072;-64
2021/04/15 07:24:20;;;;;;;0.20;0.20;;;;;;;22.35;29.38;94708.09;6103507;23;20001;-64
2021/04/15 07:27:23;;;;;;;0.20;0.20;;;;;;;22.35;29.58;94703.63;6132749;23;20037;-64
2021/04/15 07:30:16;;;;;;;0.30;0.30;;;;;;;22.35;29.58;94708.09;6152901;23;20013;-64
2021/04/15 07:33:03;;;;;;;0.20;0.20;;;;;;;22.30;29.38;94708.91;6102826;23;20017;-64
2021/04/15 07:35:38;;;;;;;0.20;0.20;;;;;;;22.32;29.43;94713.94;6127688;23;20009;-64
2021/04/15 07:38:29;;;;;;;0.15;0.15;;;;;;;22.33;29.32;94715.53;6104323;23;20012;-64
2021/04/15 07:40:54;;;;;;;0.20;0.20;;;;;;;22.29;29.54;94709.97;6127792;23;20012;-64
2021/04/15 07:43:50;;;;;;;0.30;0.30;;;;;;;22.33;29.51;94712.88;6127598;23;20018;-64
2021/04/15 07:46:49;;;;;;;0.17;0.17;;;;;;;22.32;29.53;94720.03;6127376;23;20005;-65
2021/04/15 07:49:36;;;;;;;0.20;0.20;;;;;;;22.30;29.41;94716.06;6107408;23;20020;-65
2021/04/15 07:52:08;;;;;;;0.30;0.30;;;;;;;22.32;29.52;94708.66;6105439;23;20005;-64
2021/04/15 07:54:52;;;;;;;0.20;0.20;;;;;;;22.32;29.54;94714.75;6153740;23;20084;-64
2021/04/15 07:57:50;;;;;;;0.20;0.20;;;;;;;22.33;29.14;94715.53;6128586;23;20001;-64
2021/04/15 08:00:36;;;;;;;0.20;0.20;;;;;;;22.31;29.31;94710.50;6127251;23;20005;-64
2021/04/15 08:03:29;;;;;;;0.20;0.20;;;;;;;22.30;29.52;94714.22;6063098;23;20014;-64
2021/04/15 08:06:25;;;;;;;0.20;0.20;;;;;;;22.32;29.38;94719.25;6020230;23;20006;-64
2021/04/15 08:09:06;;;;;;;0.25;0.25;;;;;;;22.31;29.50;94712.34;6064178;23;20017;-65
2021/04/15 08:11:54;;;;;;;0.20;0.20;;;;;;;22.31;29.15;94710.50;6063882;23;20006;-65
2021/04/15 08:14:49;;;;;;;0.20;0.20;;;;;;;22.30;29.42;94713.44;6016426;23;20011;-64
2021/04/15 08:17:46;;;;;;;0.30;0.30;;;;;;;22.30;29.21;94713.44;6039862;23;20015;-64
2021/04/15 08:20:24;;;;;;;0.20;0.20;;;;;;;22.28;29.26;94712.91;6015830;23;20007;-64
2021/04/15 08:23:15;;;;;;;0.15;0.15;;;;;;;22.31;29.50;94721.09;6015642;23;20010;-64
2021/04/15 08:25:59;;;;;;;0.22;0.22;;;;;;;22.31;29.31;94722.94;6013654;23;20011;-64
2021/04/15 08:28:40;;;;;;;0.30;0.30;;;;;;;22.30;29.29;94713.44;6064005;23;20272;-65
2021/04/15 08:31:46;;;;;;;0.20;0.20;;;;;;;22.30;29.47;94721.38;6038637;23;20006;-64
2021/04/15 08:34:27;;;;;;;0.20;0.20;;;;;;;22.30;29.39;94721.38;6039122;23;20359;-64
2021/04/15 08:37:19;;;;;;;0.20;0.20;;;;;;;22.31;29.41;94722.94;6039490;23;20070;-64
2021/04/15 08:40:03;;;;;;;0.25;0.25;;;;;;;22.25;29.32;94720.28;6043841;23;20060;-64
2021/04/15 08:42:51;;;;;;;0.20;0.20;;;;;;;22.28;29.32;94718.97;6127021;23;20012;-64
2021/04/15 08:45:26;;;;;;;0.28;0.28;;;;;;;22.28;29.26;94713.69;6101720;23;20033;-64
2021/04/15 08:47:56;;;;;;;0.20;0.20;;;;;;;22.24;29.22;94713.38;6104024;23;20105;-64
2021/04/15 08:50:29;;;;;;;0.20;0.20;;;;;;;22.28;29.19;94721.63;6103826;23;20040;-64
2021/04/15 08:53:09;;;;;;;0.30;0.30;;;;;;;22.31;29.45;94707.84;6104235;23;20088;-65
2021/04/15 08:55:38;;;;;;;0.30;0.30;;;;;;;22.28;29.21;94712.91;6105743;23;20037;-64
2021/04/15 08:58:23;;;;;;;0.20;0.20;;;;;;;22.32;29.28;94719.25;6153264;23;20001;-64
2021/04/15 09:01:13;;;;;;;0.20;0.20;;;;;;;22.31;29.35;94713.13;6127502;23;20014;-64
2021/04/15 09:04:00;;;;;;;0.20;0.20;;;;;;;22.29;29.24;94703.88;6154155;23;20001;-64
2021/04/15 09:07:05;;;;;;;0.20;0.20;;;;;;;22.32;29.22;94711.31;6133811;23;20009;-64
2021/04/15 09:09:40;;;;;;;0.20;0.20;;;;;;;22.31;29.23;94713.13;5984387;23;20012;-64
2021/04/15 09:12:53;;;;;;;0.25;0.25;;;;;;;22.33;28.98;94715.53;5984338;23;20075;-64
2021/04/15 09:15:52;;;;;;;0.20;0.20;;;;;;;22.31;29.25;94707.06;5928179;24;20004;-64
2021/04/15 09:18:21;;;;;;;0.20;0.20;;;;;;;22.27;29.17;94712.06;5905946;24;20069;-64
2021/04/15 09:21:08;;;;;;;0.20;0.20;;;;;;;22.30;29.34;94697.53;5929695;24;20024;-64
2021/04/15 09:23:43;;;;;;;0.30;0.30;;;;;;;22.29;29.17;94703.88;5951833;24;20038;-64
2021/04/15 09:26:33;;;;;;;0.20;0.20;;;;;;;22.31;29.13;94704.41;5928785;24;20008;-64
2021/04/15 09:29:23;;;;;;;0.20;0.20;;;;;;;22.30;29.03;94705.47;5905879;24;20020;-65
2021/04/15 09:31:56;;;;;;;0.20;0.20;;;;;;;22.23;29.21;94695.88;5928582;24;20005;-64
2021/04/15 09:34:42;;;;;;;0.10;0.10;;;;;;;22.29;29.06;94703.88;5882399;24;20012;-63
2021/04/15 09:37:32;;;;;;;0.20;0.20;;;;;;;22.28;29.29;94700.44;5951830;24;20009;-64
2021/04/15 09:40:08;;;;;;;0.25;0.25;;;;;;;22.28;29.11;94695.13;5952482;24;20008;-64
2021/04/15 09:42:52;;;;;;;0.20;0.20;;;;;;;22.30;29.05;94697.53;5905090;24;20021;-63
2021/04/15 09:45:29;;;;;;;0.20;0.20;;;;;;;22.27;29.22;94698.03;5951129;24;20069;-64
2021/04/15 09:48:28;;;;;;;0.22;0.20;;;;;;;22.29;29.00;94701.22;6035828;23;20014;-64
2021/04/15 09:50:57;;;;;;;0.20;0.20;;;;;;;22.24;29.32;94691.41;6066427;23;20002;-64
2021/04/15 09:53:33;;;;;;;0.20;0.20;;;;;;;22.28;29.01;94699.66;6127767;23;20013;-64
2021/04/15 09:56:27;;;;;;;0.20;0.20;;;;;;;22.30;29.07;94700.97;6127742;23;20009;-64
2021/04/15 09:58:59;;;;;;;0.20;0.20;;;;;;;22.28;29.28;94687.19;6152251;23;20006;-64
2021/04/15 10:01:40;;;;;;;0.30;0.30;;;;;;;22.28;29.03;94691.69;6102694;23;20001;-64
2021/04/15 10:04:14;;;;;;;0.20;0.20;;;;;;;22.29;29.23;94685.31;6128595;23;20029;-64
2021/04/15 10:06:51;;;;;;;0.20;0.20;;;;;;;22.29;29.01;94693.28;6153493;23;20056;-64
2021/04/15 10:09:31;;;;;;;0.20;0.20;;;;;;;22.30;28.96;94690.38;6129387;23;20006;-64
2021/04/15 10:12:06;;;;;;;0.30;0.30;;;;;;;22.29;28.99;94693.28;6128877;23;20011;-64
2021/04/15 10:14:32;;;;;;;0.20;0.20;;;;;;;22.27;29.29;94690.09;6152636;23;20005;-65
2021/04/15 10:17:15;;;;;;;0.20;0.20;;;;;;;22.31;29.23;94685.84;6155299;23;20093;-64
2021/04/15 10:20:05;;;;;;;0.20;0.20;;;;;;;22.29;28.98;94685.31;6129299;23;20012;-64
2021/04/15 10:22:55;;;;;;;0.20;0.20;;;;;;;22.29;28.97;94678.16;6154639;23;20001;-64
2021/04/15 10:25:40;;;;;;;0.30;0.30;;;;;;;22.29;29.28;94675.53;6107692;23;20009;-64
2021/04/15 10:28:31;;;;;;;0.20;0.20;;;;;;;22.30;29.17;94668.38;6128752;23;20005;-64
2021/04/15 10:31:17;;;;;;;0.20;0.20;;;;;;;22.29;29.21;94672.09;6155125;23;20008;-64
2021/04/15 10:33:51;;;;;;;0.30;0.30;;;;;;;22.27;28.91;94672.34;6153441;23;20053;-67
2021/04/15 10:36:40;;;;;;;0.20;0.20;;;;;;;22.29;28.91;94666.78;6136484;23;20009;-63
2021/04/15 10:39:28;;;;;;;0.40;0.30;;;;;;;22.31;28.65;94664.66;6127497;23;20056;-63
2021/04/15 10:42:12;;;;;;;0.30;0.30;;;;;;;22.29;28.66;94662.28;6129070;23;20005;-63
2021/04/15 10:44:46;;;;;;;0.20;0.20;;;;;;;22.28;28.66;94663.34;6154617;23;20006;-64
2021/04/15 10:47:26;;;;;;;0.30;0.30;;;;;;;22.28;28.87;94654.63;6155109;23;20001;-64
2021/04/15 10:50:19;;;;;;;0.20;0.20;;;;;;;22.31;28.99;94662.00;6107056;23;20001;-64
2021/04/15 10:53:13;;;;;;;0.30;0.30;;;;;;;22.31;29.06;94659.38;6129263;23;20001;-64
2021/04/15 10:55:40;;;;;;;0.20;0.20;;;;;;;22.27;29.12;94653.00;6128760;23;20001;-64
2021/04/15 10:58:28;;;;;;;0.20;0.20;;;;;;;22.30;29.14;94653.28;6104537;23;20005;-64
2021/04/15 11:00:53;;;;;;;0.20;0.20;;;;;;;22.25;28.80;94655.91;6128264;23;20009;-64
2021/04/15 11:03:41;;;;;;;0.52;0.22;;;;;;;22.28;28.81;94647.44;6079950;23;20036;-64
2021/04/15 11:06:07;;;;;;;0.20;0.20;;;;;;;22.27;28.83;94651.16;6126987;23;20009;-63
2021/04/15 11:08:34;;;;;;;0.20;0.20;;;;;;;22.30;28.92;94660.44;6102899;23;20016;-64
2021/04/15 11:11:23;;;;;;;0.70;0.30;;;;;;;22.32;28.68;94653.03;6080210;23;20001;-64
2021/04/15 11:13:59;;;;;;;0.20;0.20;;;;;;;22.27;28.93;94647.72;6105874;23;20006;-63
2021/04/15 11:16:32;;;;;;;0.20;0.20;;;;;;;22.32;29.03;94643.22;6105662;23;20005;-63
2021/04/15 11:19:08;;;;;;;0.80;0.30;;;;;;;22.31;29.05;94644.25;6103790;23;20073;-64
2021/04/15 11:21:35;;;;;;;0.20;0.20;;;;;;;22.27;28.95;94631.81;6104161;23;20059;-61
2021/04/15 11:24:33;;;;;;;0.30;0.20;;;;;;;22.26;29.40;94638.97;6104139;23;20008;-63
2021/04/15 11:27:07;;;;;;;0.17;0.17;;;;;;;22.22;29.45;94625.44;6104865;23;20005;-63
2021/04/15 11:29:44;;;;;;;0.10;0.10;;;;;;;22.21;29.56;94639.72;6105497;23;19997;-63
2021/04/15 11:32:40;;;;;;;0.10;0.10;;;;;;;22.23;29.32;94631.53;6104035;23;20088;-63
2021/04/15 11:35:16;;;;;;;0.10;0.10;;;;;;;22.26;29.44;94636.31;6095782;23;20013;-63
2021/04/15 11:37:43;;;;;;;0.10;0.10;;;;;;;22.26;29.47;94633.69;6103725;23;20029;-63
2021/04/15 11:40:31;;;;;;;0.10;0.10;;;;;;;22.32;29.55;94639.78;6103703;23;20036;-63
2021/04/15 11:42:59;;;;;;;0.10;0.10;;;;;;;22.30;29.45;94637.38;6103639;23;20045;-63
2021/04/15 11:45:35;;;;;;;0.10;0.10;;;;;;;22.37;29.37;94637.91;6103824;23;20033;-62
2021/04/15 11:48:24;;;;;;;0.10;0.10;;;;;;;22.41;29.50;94638.19;6103834;23;20009;-64
2021/04/15 11:51:08;;;;;;;0.10;0.10;;;;;;;22.44;29.89;94638.41;6104394;23;20001;-63
2021/04/15 11:53:43;;;;;;;0.10;0.10;;;;;;;22.49;29.54;94631.56;6082622;23;20028;-63
2021/04/15 11:56:17;;;;;;;0.10;0.10;;;;;;;22.50;29.61;94631.25;6127743;23;20001;-63
2021/04/15 11:58:44;;;;;;;0.10;0.10;;;;;;;22.51;29.75;94629.44;6128184;23;20033;-63
2021/04/15 12:01:09;;;;;;;0.10;0.10;;;;;;;22.51;29.68;94627.56;6103582;23;20013;-63
2021/04/15 12:03:35;;;;;;;0.10;0.10;;;;;;;22.55;29.65;94631.28;6105054;23;20010;-63
2021/04/15 12:06:07;;;;;;;0.10;0.10;;;;;;;22.59;29.51;94634.97;6104722;23;20005;-63
2021/04/15 12:08:37;;;;;;;0.10;0.10;;;;;;;22.61;29.38;94632.84;6105663;23;20005;-63
2021/04/15 12:11:21;;;;;;;0.10;0.10;;;;;;;22.63;29.59;94633.38;6080944;23;20010;-63
2021/04/15 12:14:08;;;;;;;0.10;0.10;;;;;;;22.63;29.42;94627.28;6104739;23;20087;-63
2021/04/15 12:17:17;;;;;;;0.10;0.10;;;;;;;22.69;29.29;94643.97;6103819;23;20005;-63
2021/04/15 12:20:13;;;;;;;0.10;0.10;;;;;;;22.69;29.46;94639.47;6063770;23;20045;-63
2021/04/15 12:23:15;;;;;;;0.10;0.10;;;;;;;22.72;29.33;94630.19;5987477;23;20004;-64
2021/04/15 12:26:02;;;;;;;0.10;0.10;;;;;;;22.72;29.41;94635.50;5983649;23;20072;-65